sensor_id;sensor_type;location;lat;lon;timestamp;P1;durP1;ratioP1;P2;durP2;ratioP2
23282;SDS011;11810;51.178;3.878;2022-09-09T00:01:19;0.00;;;0.00;;
23282;SDS011;11810;51.178;3.878;2022-09-09T00:06:34;0.05;;;0.05;;
23282;SDS011;11810;51.178;3.878;2022-09-09T00:09:16;0.10;;;0.10;;
23282;SDS011;11810;51.178;3.878;2022-09-09T00:14:55;0.20;;;0.20;;
23282;SDS011;11810;51.178;3.878;2022-09-09T00:20:30;0.10;;;0.10;;
23282;SDS011;11810;51.178;3.878;2022-09-09T00:25:37;0.00;;;0.00;;
23282;SDS011;11810;51.178;3.878;2022-09-09T00:28:22;0.00;;;0.00;;
23282;SDS011;11810;51.178;3.878;2022-09-09T00:30:50;0.30;;;0.30;;
23282;SDS011;11810;51.178;3.878;2022-09-09T00:33:18;0.00;;;0.00;;
23282;SDS011;11810;51.178;3.878;2022-09-09T00:35:52;0.35;;;0.35;;
23282;SDS011;11810;51.178;3.878;2022-09-09T00:38:23;0.00;;;0.00;;
23282;SDS011;11810;51.178;3.878;2022-09-09T00:43:40;0.10;;;0.10;;
23282;SDS011;11810;51.178;3.878;2022-09-09T00:54:23;0.00;;;0.00;;
23282;SDS011;11810;51.178;3.878;2022-09-09T01:03:27;0.10;;;0.10;;
23282;SDS011;11810;51.178;3.878;2022-09-09T01:14:49;0.20;;;0.20;;
23282;SDS011;11810;51.178;3.878;2022-09-09T01:28:24;0.10;;;0.10;;
23282;SDS011;11810;51.178;3.878;2022-09-09T01:30:53;1.27;;;0.43;;
23282;SDS011;11810;51.178;3.878;2022-09-09T01:33:21;0.00;;;0.00;;
23282;SDS011;11810;51.178;3.878;2022-09-09T01:38:26;0.10;;;0.10;;
23282;SDS011;11810;51.178;3.878;2022-09-09T01:40:54;0.40;;;0.40;;
23282;SDS011;11810;51.178;3.878;2022-09-09T01:43:20;2.72;;;1.45;;
23282;SDS011;11810;51.178;3.878;2022-09-09T01:45:48;0.20;;;0.17;;
23282;SDS011;11810;51.178;3.878;2022-09-09T01:48:17;0.00;;;0.00;;
23282;SDS011;11810;51.178;3.878;2022-09-09T01:50:45;0.20;;;0.20;;
23282;SDS011;11810;51.178;3.878;2022-09-09T01:53:11;1.55;;;1.45;;
23282;SDS011;11810;51.178;3.878;2022-09-09T01:55:39;0.10;;;0.10;;
23282;SDS011;11810;51.178;3.878;2022-09-09T02:00:33;0.00;;;0.00;;
23282;SDS011;11810;51.178;3.878;2022-09-09T02:03:25;0.05;;;0.05;;
23282;SDS011;11810;51.178;3.878;2022-09-09T02:08:36;0.00;;;0.00;;
23282;SDS011;11810;51.178;3.878;2022-09-09T02:11:14;0.10;;;0.10;;
23282;SDS011;11810;51.178;3.878;2022-09-09T02:13:42;0.10;;;0.10;;
23282;SDS011;11810;51.178;3.878;2022-09-09T02:16:56;0.00;;;0.00;;
23282;SDS011;11810;51.178;3.878;2022-09-09T02:19:14;0.00;;;0.00;;
23282;SDS011;11810;51.178;3.878;2022-09-09T02:21:48;3.78;;;1.05;;
23282;SDS011;11810;51.178;3.878;2022-09-09T02:24:15;0.00;;;0.00;;
23282;SDS011;11810;51.178;3.878;2022-09-09T02:26:42;1.33;;;1.23;;
23282;SDS011;11810;51.178;3.878;2022-09-09T02:29:13;0.10;;;0.10;;
23282;SDS011;11810;51.178;3.878;2022-09-09T02:31:41;0.10;;;0.10;;
23282;SDS011;11810;51.178;3.878;2022-09-09T02:34:09;0.08;;;0.08;;
23282;SDS011;11810;51.178;3.878;2022-09-09T02:36:37;0.10;;;0.10;;
23282;SDS011;11810;51.178;3.878;2022-09-09T02:39:07;0.00;;;0.00;;
23282;SDS011;11810;51.178;3.878;2022-09-09T02:41:35;0.00;;;0.00;;
23282;SDS011;11810;51.178;3.878;2022-09-09T02:44:14;0.32;;;0.32;;
23282;SDS011;11810;51.178;3.878;2022-09-09T02:54:39;0.20;;;0.20;;
23282;SDS011;11810;51.178;3.878;2022-09-09T02:57:16;0.08;;;0.08;;
23282;SDS011;11810;51.178;3.878;2022-09-09T02:59:46;0.00;;;0.00;;
23282;SDS011;11810;51.178;3.878;2022-09-09T03:02:13;0.10;;;0.10;;
23282;SDS011;11810;51.178;3.878;2022-09-09T03:04:39;0.10;;;0.10;;
23282;SDS011;11810;51.178;3.878;2022-09-09T03:07:08;0.00;;;0.00;;
23282;SDS011;11810;51.178;3.878;2022-09-09T03:09:35;0.65;;;0.65;;
23282;SDS011;11810;51.178;3.878;2022-09-09T03:12:01;0.00;;;0.00;;
23282;SDS011;11810;51.178;3.878;2022-09-09T03:14:29;0.10;;;0.10;;
23282;SDS011;11810;51.178;3.878;2022-09-09T03:16:55;0.10;;;0.10;;
23282;SDS011;11810;51.178;3.878;2022-09-09T03:19:23;0.20;;;0.20;;
23282;SDS011;11810;51.178;3.878;2022-09-09T03:21:49;0.10;;;0.10;;
23282;SDS011;11810;51.178;3.878;2022-09-09T03:24:16;0.00;;;0.00;;
23282;SDS011;11810;51.178;3.878;2022-09-09T03:26:42;0.10;;;0.10;;
23282;SDS011;11810;51.178;3.878;2022-09-09T03:29:11;0.10;;;0.10;;
23282;SDS011;11810;51.178;3.878;2022-09-09T03:31:38;0.10;;;0.10;;
23282;SDS011;11810;51.178;3.878;2022-09-09T03:34:04;0.10;;;0.10;;
23282;SDS011;11810;51.178;3.878;2022-09-09T03:36:30;0.95;;;0.32;;
23282;SDS011;11810;51.178;3.878;2022-09-09T03:38:56;0.10;;;0.10;;
23282;SDS011;11810;51.178;3.878;2022-09-09T03:41:23;0.13;;;0.13;;
23282;SDS011;11810;51.178;3.878;2022-09-09T03:43:50;0.10;;;0.10;;
23282;SDS011;11810;51.178;3.878;2022-09-09T03:46:16;0.75;;;0.75;;
23282;SDS011;11810;51.178;3.878;2022-09-09T03:48:47;0.13;;;0.13;;
23282;SDS011;11810;51.178;3.878;2022-09-09T03:51:13;0.10;;;0.10;;
23282;SDS011;11810;51.178;3.878;2022-09-09T03:53:40;0.85;;;0.85;;
23282;SDS011;11810;51.178;3.878;2022-09-09T03:56:08;0.00;;;0.00;;
23282;SDS011;11810;51.178;3.878;2022-09-09T03:58:34;0.40;;;0.40;;
23282;SDS011;11810;51.178;3.878;2022-09-09T04:03:39;1.27;;;0.65;;
23282;SDS011;11810;51.178;3.878;2022-09-09T04:06:06;0.45;;;0.45;;
23282;SDS011;11810;51.178;3.878;2022-09-09T04:08:34;0.10;;;0.10;;
23282;SDS011;11810;51.178;3.878;2022-09-09T04:11:01;0.20;;;0.20;;
23282;SDS011;11810;51.178;3.878;2022-09-09T04:13:31;0.05;;;0.05;;
23282;SDS011;11810;51.178;3.878;2022-09-09T04:16:03;0.10;;;0.10;;
23282;SDS011;11810;51.178;3.878;2022-09-09T04:18:30;2.72;;;1.08;;
23282;SDS011;11810;51.178;3.878;2022-09-09T04:20:56;0.10;;;0.10;;
23282;SDS011;11810;51.178;3.878;2022-09-09T04:23:23;0.10;;;0.10;;
23282;SDS011;11810;51.178;3.878;2022-09-09T04:25:53;0.28;;;0.28;;
23282;SDS011;11810;51.178;3.878;2022-09-09T04:28:21;0.03;;;0.03;;
23282;SDS011;11810;51.178;3.878;2022-09-09T04:30:49;0.10;;;0.10;;
23282;SDS011;11810;51.178;3.878;2022-09-09T04:33:15;0.00;;;0.00;;
23282;SDS011;11810;51.178;3.878;2022-09-09T04:35:45;0.32;;;0.32;;
23282;SDS011;11810;51.178;3.878;2022-09-09T04:38:13;1.23;;;0.88;;
23282;SDS011;11810;51.178;3.878;2022-09-09T04:40:43;0.10;;;0.10;;
23282;SDS011;11810;51.178;3.878;2022-09-09T04:43:12;0.70;;;0.70;;
23282;SDS011;11810;51.178;3.878;2022-09-09T04:45:39;0.10;;;0.10;;
23282;SDS011;11810;51.178;3.878;2022-09-09T04:48:06;5.03;;;2.00;;
23282;SDS011;11810;51.178;3.878;2022-09-09T04:50:32;0.00;;;0.00;;
23282;SDS011;11810;51.178;3.878;2022-09-09T04:53:01;0.03;;;0.03;;
23282;SDS011;11810;51.178;3.878;2022-09-09T04:55:29;0.10;;;0.10;;
23282;SDS011;11810;51.178;3.878;2022-09-09T04:57:56;0.10;;;0.10;;
23282;SDS011;11810;51.178;3.878;2022-09-09T05:00:23;0.00;;;0.00;;
23282;SDS011;11810;51.178;3.878;2022-09-09T05:02:49;0.10;;;0.10;;
23282;SDS011;11810;51.178;3.878;2022-09-09T05:05:16;0.10;;;0.10;;
23282;SDS011;11810;51.178;3.878;2022-09-09T05:07:42;0.00;;;0.00;;
23282;SDS011;11810;51.178;3.878;2022-09-09T05:10:08;0.10;;;0.10;;
23282;SDS011;11810;51.178;3.878;2022-09-09T05:12:35;0.38;;;0.38;;
23282;SDS011;11810;51.178;3.878;2022-09-09T05:15:01;0.22;;;0.22;;
23282;SDS011;11810;51.178;3.878;2022-09-09T05:17:27;0.10;;;0.10;;
23282;SDS011;11810;51.178;3.878;2022-09-09T05:19:54;4.18;;;1.55;;
23282;SDS011;11810;51.178;3.878;2022-09-09T05:22:20;0.15;;;0.15;;
23282;SDS011;11810;51.178;3.878;2022-09-09T05:24:48;0.32;;;0.30;;
23282;SDS011;11810;51.178;3.878;2022-09-09T05:27:19;0.00;;;0.00;;
23282;SDS011;11810;51.178;3.878;2022-09-09T05:29:45;1.10;;;0.98;;
23282;SDS011;11810;51.178;3.878;2022-09-09T05:32:11;0.10;;;0.10;;
23282;SDS011;11810;51.178;3.878;2022-09-09T05:34:38;0.00;;;0.00;;
23282;SDS011;11810;51.178;3.878;2022-09-09T05:37:04;0.30;;;0.30;;
23282;SDS011;11810;51.178;3.878;2022-09-09T05:39:32;0.20;;;0.20;;
23282;SDS011;11810;51.178;3.878;2022-09-09T05:42:01;0.10;;;0.10;;
23282;SDS011;11810;51.178;3.878;2022-09-09T05:44:29;0.10;;;0.10;;
23282;SDS011;11810;51.178;3.878;2022-09-09T05:46:54;1.60;;;1.55;;
23282;SDS011;11810;51.178;3.878;2022-09-09T05:49:20;0.52;;;0.52;;
23282;SDS011;11810;51.178;3.878;2022-09-09T05:51:46;0.00;;;0.00;;
23282;SDS011;11810;51.178;3.878;2022-09-09T05:54:13;1.33;;;1.23;;
23282;SDS011;11810;51.178;3.878;2022-09-09T05:56:40;0.20;;;0.20;;
23282;SDS011;11810;51.178;3.878;2022-09-09T05:59:07;0.10;;;0.10;;
23282;SDS011;11810;51.178;3.878;2022-09-09T06:01:35;0.38;;;0.38;;
23282;SDS011;11810;51.178;3.878;2022-09-09T06:04:01;0.50;;;0.50;;
23282;SDS011;11810;51.178;3.878;2022-09-09T06:06:32;1.38;;;1.27;;
23282;SDS011;11810;51.178;3.878;2022-09-09T06:09:05;0.65;;;0.65;;
23282;SDS011;11810;51.178;3.878;2022-09-09T06:11:34;0.28;;;0.28;;
23282;SDS011;11810;51.178;3.878;2022-09-09T06:14:02;0.10;;;0.10;;
23282;SDS011;11810;51.178;3.878;2022-09-09T06:16:29;0.10;;;0.10;;
23282;SDS011;11810;51.178;3.878;2022-09-09T06:18:57;0.20;;;0.20;;
23282;SDS011;11810;51.178;3.878;2022-09-09T06:21:25;0.47;;;0.47;;
23282;SDS011;11810;51.178;3.878;2022-09-09T06:24:05;16.20;;;2.03;;
23282;SDS011;11810;51.178;3.878;2022-09-09T06:26:33;18.73;;;3.90;;
23282;SDS011;11810;51.178;3.878;2022-09-09T06:29:01;19.80;;;4.88;;
23282;SDS011;11810;51.178;3.878;2022-09-09T06:31:31;17.73;;;4.00;;
23282;SDS011;11810;51.178;3.878;2022-09-09T06:33:59;24.95;;;4.43;;
23282;SDS011;11810;51.178;3.878;2022-09-09T06:36:29;20.00;;;4.40;;
23282;SDS011;11810;51.178;3.878;2022-09-09T06:38:57;16.25;;;3.95;;
23282;SDS011;11810;51.178;3.878;2022-09-09T06:41:24;17.67;;;3.70;;
23282;SDS011;11810;51.178;3.878;2022-09-09T06:43:52;10.38;;;3.67;;
23282;SDS011;11810;51.178;3.878;2022-09-09T06:46:19;20.33;;;3.95;;
23282;SDS011;11810;51.178;3.878;2022-09-09T06:48:53;22.00;;;4.72;;
23282;SDS011;11810;51.178;3.878;2022-09-09T06:51:25;20.25;;;4.15;;
23282;SDS011;11810;51.178;3.878;2022-09-09T06:53:54;15.75;;;4.07;;
23282;SDS011;11810;51.178;3.878;2022-09-09T06:58:48;16.73;;;4.47;;
23282;SDS011;11810;51.178;3.878;2022-09-09T07:01:16;16.77;;;4.82;;
23282;SDS011;11810;51.178;3.878;2022-09-09T07:03:47;21.10;;;4.18;;
23282;SDS011;11810;51.178;3.878;2022-09-09T07:06:16;17.55;;;4.60;;
23282;SDS011;11810;51.178;3.878;2022-09-09T07:08:48;19.17;;;5.00;;
23282;SDS011;11810;51.178;3.878;2022-09-09T07:11:18;16.95;;;4.72;;
23282;SDS011;11810;51.178;3.878;2022-09-09T07:13:45;21.70;;;4.13;;
23282;SDS011;11810;51.178;3.878;2022-09-09T07:16:13;19.55;;;4.38;;
23282;SDS011;11810;51.178;3.878;2022-09-09T07:18:40;22.17;;;4.43;;
23282;SDS011;11810;51.178;3.878;2022-09-09T07:21:07;13.65;;;3.85;;
23282;SDS011;11810;51.178;3.878;2022-09-09T07:23:34;12.65;;;3.33;;
23282;SDS011;11810;51.178;3.878;2022-09-09T07:26:07;13.60;;;2.88;;
23282;SDS011;11810;51.178;3.878;2022-09-09T07:28:38;14.15;;;2.75;;
23282;SDS011;11810;51.178;3.878;2022-09-09T07:31:05;15.00;;;2.63;;
23282;SDS011;11810;51.178;3.878;2022-09-09T07:33:32;12.85;;;2.70;;
23282;SDS011;11810;51.178;3.878;2022-09-09T07:36:14;10.10;;;2.95;;
23282;SDS011;11810;51.178;3.878;2022-09-09T07:38:46;14.77;;;2.67;;
23282;SDS011;11810;51.178;3.878;2022-09-09T07:41:56;13.30;;;2.83;;
23282;SDS011;11810;51.178;3.878;2022-09-09T07:44:06;14.10;;;3.05;;
23282;SDS011;11810;51.178;3.878;2022-09-09T07:46:33;8.93;;;2.80;;
23282;SDS011;11810;51.178;3.878;2022-09-09T07:49:00;12.80;;;2.72;;
23282;SDS011;11810;51.178;3.878;2022-09-09T07:51:28;11.40;;;2.40;;
23282;SDS011;11810;51.178;3.878;2022-09-09T07:53:59;10.77;;;2.55;;
23282;SDS011;11810;51.178;3.878;2022-09-09T07:56:28;10.63;;;2.42;;
23282;SDS011;11810;51.178;3.878;2022-09-09T07:58:55;15.25;;;2.67;;
23282;SDS011;11810;51.178;3.878;2022-09-09T08:01:26;9.38;;;2.20;;
23282;SDS011;11810;51.178;3.878;2022-09-09T08:03:59;14.45;;;2.10;;
23282;SDS011;11810;51.178;3.878;2022-09-09T08:06:27;13.27;;;2.03;;
23282;SDS011;11810;51.178;3.878;2022-09-09T08:08:54;10.77;;;2.30;;
23282;SDS011;11810;51.178;3.878;2022-09-09T08:11:21;9.90;;;2.47;;
23282;SDS011;11810;51.178;3.878;2022-09-09T08:13:49;8.93;;;2.38;;
23282;SDS011;11810;51.178;3.878;2022-09-09T08:16:17;13.13;;;2.40;;
23282;SDS011;11810;51.178;3.878;2022-09-09T08:18:47;8.98;;;2.55;;
23282;SDS011;11810;51.178;3.878;2022-09-09T08:21:15;14.38;;;3.30;;
23282;SDS011;11810;51.178;3.878;2022-09-09T08:23:44;9.13;;;2.42;;
23282;SDS011;11810;51.178;3.878;2022-09-09T08:26:16;13.07;;;2.70;;
23282;SDS011;11810;51.178;3.878;2022-09-09T08:28:53;9.70;;;2.55;;
23282;SDS011;11810;51.178;3.878;2022-09-09T08:31:22;9.38;;;2.20;;
23282;SDS011;11810;51.178;3.878;2022-09-09T08:33:50;11.60;;;2.65;;
23282;SDS011;11810;51.178;3.878;2022-09-09T08:36:17;10.05;;;2.90;;
23282;SDS011;11810;51.178;3.878;2022-09-09T08:38:48;12.93;;;2.65;;
23282;SDS011;11810;51.178;3.878;2022-09-09T08:43:50;12.32;;;2.85;;
23282;SDS011;11810;51.178;3.878;2022-09-09T08:46:51;15.60;;;2.78;;
23282;SDS011;11810;51.178;3.878;2022-09-09T08:49:36;10.73;;;2.88;;
23282;SDS011;11810;51.178;3.878;2022-09-09T08:52:09;11.75;;;2.88;;
23282;SDS011;11810;51.178;3.878;2022-09-09T08:54:44;12.23;;;2.53;;
23282;SDS011;11810;51.178;3.878;2022-09-09T08:57:13;9.48;;;3.20;;
23282;SDS011;11810;51.178;3.878;2022-09-09T08:59:43;12.52;;;2.67;;
23282;SDS011;11810;51.178;3.878;2022-09-09T09:02:21;8.15;;;2.55;;
23282;SDS011;11810;51.178;3.878;2022-09-09T09:05:04;10.57;;;2.63;;
23282;SDS011;11810;51.178;3.878;2022-09-09T09:12:55;10.80;;;2.92;;
23282;SDS011;11810;51.178;3.878;2022-09-09T09:15:25;8.75;;;2.40;;
23282;SDS011;11810;51.178;3.878;2022-09-09T09:17:56;11.00;;;2.85;;
23282;SDS011;11810;51.178;3.878;2022-09-09T09:20:42;8.57;;;2.17;;
23282;SDS011;11810;51.178;3.878;2022-09-09T09:23:24;7.67;;;2.10;;
23282;SDS011;11810;51.178;3.878;2022-09-09T09:25:55;11.30;;;2.30;;
23282;SDS011;11810;51.178;3.878;2022-09-09T09:28:26;8.57;;;2.55;;
23282;SDS011;11810;51.178;3.878;2022-09-09T09:31:07;5.53;;;1.92;;
23282;SDS011;11810;51.178;3.878;2022-09-09T09:36:18;11.40;;;2.20;;
23282;SDS011;11810;51.178;3.878;2022-09-09T09:38:52;10.55;;;2.13;;
23282;SDS011;11810;51.178;3.878;2022-09-09T09:41:38;10.13;;;2.28;;
23282;SDS011;11810;51.178;3.878;2022-09-09T09:44:28;7.63;;;2.05;;
23282;SDS011;11810;51.178;3.878;2022-09-09T09:47:05;10.43;;;2.33;;
23282;SDS011;11810;51.178;3.878;2022-09-09T09:49:38;14.52;;;2.20;;
23282;SDS011;11810;51.178;3.878;2022-09-09T09:52:05;8.30;;;2.10;;
23282;SDS011;11810;51.178;3.878;2022-09-09T09:54:39;5.60;;;1.88;;
23282;SDS011;11810;51.178;3.878;2022-09-09T09:57:08;5.30;;;2.15;;
23282;SDS011;11810;51.178;3.878;2022-09-09T09:59:36;10.25;;;2.15;;
23282;SDS011;11810;51.178;3.878;2022-09-09T10:02:23;7.97;;;2.17;;
23282;SDS011;11810;51.178;3.878;2022-09-09T10:05:01;7.20;;;1.92;;
23282;SDS011;11810;51.178;3.878;2022-09-09T10:07:37;4.95;;;1.88;;
23282;SDS011;11810;51.178;3.878;2022-09-09T10:10:04;7.45;;;1.90;;
23282;SDS011;11810;51.178;3.878;2022-09-09T10:12:53;6.55;;;1.88;;
23282;SDS011;11810;51.178;3.878;2022-09-09T10:15:39;8.90;;;2.10;;
23282;SDS011;11810;51.178;3.878;2022-09-09T10:24:12;4.82;;;1.80;;
23282;SDS011;11810;51.178;3.878;2022-09-09T10:29:59;7.70;;;2.10;;
23282;SDS011;11810;51.178;3.878;2022-09-09T10:38:28;11.32;;;2.15;;
23282;SDS011;11810;51.178;3.878;2022-09-09T10:40:59;6.20;;;2.10;;
23282;SDS011;11810;51.178;3.878;2022-09-09T10:46:40;7.40;;;1.90;;
23282;SDS011;11810;51.178;3.878;2022-09-09T10:57:33;8.98;;;1.88;;
23282;SDS011;11810;51.178;3.878;2022-09-09T10:59:58;5.82;;;1.70;;
23282;SDS011;11810;51.178;3.878;2022-09-09T11:02:31;4.72;;;1.45;;
23282;SDS011;11810;51.178;3.878;2022-09-09T11:05:03;4.90;;;1.70;;
23282;SDS011;11810;51.178;3.878;2022-09-09T11:12:57;5.43;;;1.30;;
23282;SDS011;11810;51.178;3.878;2022-09-09T11:15:36;8.30;;;1.63;;
23282;SDS011;11810;51.178;3.878;2022-09-09T11:18:08;6.78;;;1.40;;
23282;SDS011;11810;51.178;3.878;2022-09-09T11:20:39;6.25;;;1.60;;
23282;SDS011;11810;51.178;3.878;2022-09-09T11:23:09;3.78;;;1.30;;
23282;SDS011;11810;51.178;3.878;2022-09-09T11:25:59;6.93;;;1.40;;
23282;SDS011;11810;51.178;3.878;2022-09-09T11:28:38;6.00;;;1.42;;
23282;SDS011;11810;51.178;3.878;2022-09-09T11:31:43;4.40;;;1.63;;
23282;SDS011;11810;51.178;3.878;2022-09-09T11:40:04;3.58;;;1.20;;
23282;SDS011;11810;51.178;3.878;2022-09-09T11:42:40;5.57;;;1.17;;
23282;SDS011;11810;51.178;3.878;2022-09-09T11:45:11;7.78;;;1.70;;
23282;SDS011;11810;51.178;3.878;2022-09-09T11:47:58;6.15;;;1.40;;
23282;SDS011;11810;51.178;3.878;2022-09-09T11:53:02;6.43;;;1.40;;
23282;SDS011;11810;51.178;3.878;2022-09-09T11:56:10;2.83;;;1.30;;
23282;SDS011;11810;51.178;3.878;2022-09-09T11:58:55;6.88;;;1.88;;
23282;SDS011;11810;51.178;3.878;2022-09-09T12:04:05;4.78;;;1.00;;
23282;SDS011;11810;51.178;3.878;2022-09-09T12:07:03;7.10;;;1.33;;
23282;SDS011;11810;51.178;3.878;2022-09-09T12:17:37;5.07;;;1.20;;
23282;SDS011;11810;51.178;3.878;2022-09-09T12:20:26;3.58;;;0.85;;
23282;SDS011;11810;51.178;3.878;2022-09-09T12:23:04;5.50;;;1.45;;
23282;SDS011;11810;51.178;3.878;2022-09-09T12:25:45;5.68;;;1.17;;
23282;SDS011;11810;51.178;3.878;2022-09-09T12:28:23;6.07;;;1.10;;
23282;SDS011;11810;51.178;3.878;2022-09-09T12:33:42;5.00;;;1.25;;
23282;SDS011;11810;51.178;3.878;2022-09-09T12:36:44;7.18;;;1.27;;
23282;SDS011;11810;51.178;3.878;2022-09-09T12:39:17;5.25;;;1.90;;
23282;SDS011;11810;51.178;3.878;2022-09-09T12:41:53;5.78;;;1.30;;
23282;SDS011;11810;51.178;3.878;2022-09-09T12:44:22;5.60;;;1.50;;
23282;SDS011;11810;51.178;3.878;2022-09-09T12:46:49;4.50;;;1.17;;
23282;SDS011;11810;51.178;3.878;2022-09-09T12:49:29;3.67;;;1.35;;
23282;SDS011;11810;51.178;3.878;2022-09-09T12:52:14;5.82;;;1.27;;
23282;SDS011;11810;51.178;3.878;2022-09-09T12:54:49;6.72;;;1.40;;
23282;SDS011;11810;51.178;3.878;2022-09-09T12:57:19;7.40;;;1.67;;
23282;SDS011;11810;51.178;3.878;2022-09-09T12:59:48;5.35;;;1.45;;
23282;SDS011;11810;51.178;3.878;2022-09-09T13:04:51;8.35;;;2.20;;
23282;SDS011;11810;51.178;3.878;2022-09-09T13:07:19;5.32;;;1.48;;
23282;SDS011;11810;51.178;3.878;2022-09-09T13:09:47;6.82;;;1.50;;
23282;SDS011;11810;51.178;3.878;2022-09-09T13:12:15;5.93;;;1.20;;
23282;SDS011;11810;51.178;3.878;2022-09-09T13:14:44;5.20;;;1.88;;
23282;SDS011;11810;51.178;3.878;2022-09-09T13:17:23;10.43;;;2.15;;
23282;SDS011;11810;51.178;3.878;2022-09-09T13:19:51;8.45;;;1.55;;
23282;SDS011;11810;51.178;3.878;2022-09-09T13:27:40;4.88;;;1.50;;
23282;SDS011;11810;51.178;3.878;2022-09-09T13:30:20;6.75;;;1.80;;
23282;SDS011;11810;51.178;3.878;2022-09-09T13:33:06;4.05;;;1.33;;
23282;SDS011;11810;51.178;3.878;2022-09-09T13:36:12;7.07;;;1.83;;
23282;SDS011;11810;51.178;3.878;2022-09-09T13:38:37;4.55;;;1.85;;
23282;SDS011;11810;51.178;3.878;2022-09-09T13:41:19;9.27;;;2.03;;
23282;SDS011;11810;51.178;3.878;2022-09-09T13:43:58;4.75;;;1.85;;
23282;SDS011;11810;51.178;3.878;2022-09-09T13:46:36;9.27;;;1.75;;
23282;SDS011;11810;51.178;3.878;2022-09-09T13:51:39;6.05;;;2.25;;
23282;SDS011;11810;51.178;3.878;2022-09-09T13:54:08;9.27;;;3.28;;
23282;SDS011;11810;51.178;3.878;2022-09-09T13:56:36;11.77;;;2.10;;
23282;SDS011;11810;51.178;3.878;2022-09-09T13:59:05;8.60;;;2.63;;
23282;SDS011;11810;51.178;3.878;2022-09-09T14:01:35;5.18;;;1.90;;
23282;SDS011;11810;51.178;3.878;2022-09-09T14:04:02;11.40;;;3.03;;
23282;SDS011;11810;51.178;3.878;2022-09-09T14:06:30;14.57;;;5.70;;
23282;SDS011;11810;51.178;3.878;2022-09-09T14:08:57;13.20;;;4.50;;
23282;SDS011;11810;51.178;3.878;2022-09-09T14:11:24;16.98;;;7.40;;
23282;SDS011;11810;51.178;3.878;2022-09-09T14:13:49;11.15;;;4.63;;
23282;SDS011;11810;51.178;3.878;2022-09-09T14:16:16;8.60;;;4.53;;
23282;SDS011;11810;51.178;3.878;2022-09-09T14:18:43;9.82;;;5.18;;
23282;SDS011;11810;51.178;3.878;2022-09-09T14:21:10;27.38;;;13.90;;
23282;SDS011;11810;51.178;3.878;2022-09-09T14:23:37;42.40;;;21.40;;
23282;SDS011;11810;51.178;3.878;2022-09-09T14:26:06;47.30;;;23.48;;
23282;SDS011;11810;51.178;3.878;2022-09-09T14:28:33;34.90;;;16.85;;
23282;SDS011;11810;51.178;3.878;2022-09-09T14:31:01;15.95;;;7.93;;
23282;SDS011;11810;51.178;3.878;2022-09-09T14:33:27;7.88;;;5.07;;
23282;SDS011;11810;51.178;3.878;2022-09-09T14:35:59;10.30;;;3.58;;
23282;SDS011;11810;51.178;3.878;2022-09-09T14:38:33;4.25;;;1.80;;
23282;SDS011;11810;51.178;3.878;2022-09-09T14:41:07;4.68;;;2.05;;
23282;SDS011;11810;51.178;3.878;2022-09-09T14:43:37;16.67;;;7.10;;
23282;SDS011;11810;51.178;3.878;2022-09-09T14:46:05;18.42;;;8.38;;
23282;SDS011;11810;51.178;3.878;2022-09-09T14:48:32;15.35;;;6.68;;
23282;SDS011;11810;51.178;3.878;2022-09-09T14:51:08;21.42;;;11.55;;
23282;SDS011;11810;51.178;3.878;2022-09-09T14:53:43;34.20;;;17.37;;
23282;SDS011;11810;51.178;3.878;2022-09-09T14:56:10;23.40;;;12.63;;
23282;SDS011;11810;51.178;3.878;2022-09-09T14:58:38;15.75;;;7.22;;
23282;SDS011;11810;51.178;3.878;2022-09-09T15:01:11;8.43;;;2.85;;
23282;SDS011;11810;51.178;3.878;2022-09-09T15:03:39;9.82;;;4.60;;
23282;SDS011;11810;51.178;3.878;2022-09-09T15:06:07;20.85;;;11.73;;
23282;SDS011;11810;51.178;3.878;2022-09-09T15:08:37;39.70;;;21.27;;
23282;SDS011;11810;51.178;3.878;2022-09-09T15:11:05;33.70;;;19.10;;
23282;SDS011;11810;51.178;3.878;2022-09-09T15:13:35;8.88;;;3.38;;
23282;SDS011;11810;51.178;3.878;2022-09-09T15:16:11;6.00;;;2.67;;
23282;SDS011;11810;51.178;3.878;2022-09-09T15:18:39;9.18;;;3.15;;
23282;SDS011;11810;51.178;3.878;2022-09-09T15:21:10;6.18;;;2.70;;
23282;SDS011;11810;51.178;3.878;2022-09-09T15:23:37;7.90;;;3.30;;
23282;SDS011;11810;51.178;3.878;2022-09-09T15:26:04;5.68;;;2.40;;
23282;SDS011;11810;51.178;3.878;2022-09-09T15:28:34;4.45;;;3.38;;
23282;SDS011;11810;51.178;3.878;2022-09-09T15:31:18;8.63;;;3.83;;
23282;SDS011;11810;51.178;3.878;2022-09-09T15:33:47;5.88;;;3.78;;
23282;SDS011;11810;51.178;3.878;2022-09-09T15:36:21;7.72;;;2.90;;
23282;SDS011;11810;51.178;3.878;2022-09-09T15:38:50;7.03;;;2.70;;
23282;SDS011;11810;51.178;3.878;2022-09-09T15:41:17;6.60;;;3.15;;
23282;SDS011;11810;51.178;3.878;2022-09-09T15:43:45;8.20;;;3.40;;
23282;SDS011;11810;51.178;3.878;2022-09-09T15:48:42;6.47;;;3.28;;
23282;SDS011;11810;51.178;3.878;2022-09-09T15:51:09;10.43;;;3.67;;
23282;SDS011;11810;51.178;3.878;2022-09-09T15:53:36;7.72;;;3.25;;
23282;SDS011;11810;51.178;3.878;2022-09-09T15:56:04;10.45;;;4.93;;
23282;SDS011;11810;51.178;3.878;2022-09-09T15:58:34;18.48;;;8.45;;
23282;SDS011;11810;51.178;3.878;2022-09-09T16:01:08;44.15;;;27.42;;
23282;SDS011;11810;51.178;3.878;2022-09-09T16:03:35;60.20;;;34.90;;
23282;SDS011;11810;51.178;3.878;2022-09-09T16:06:02;61.05;;;33.45;;
23282;SDS011;11810;51.178;3.878;2022-09-09T16:08:36;32.95;;;18.60;;
23282;SDS011;11810;51.178;3.878;2022-09-09T16:11:07;50.90;;;30.40;;
23282;SDS011;11810;51.178;3.878;2022-09-09T16:13:37;76.07;;;46.70;;
23282;SDS011;11810;51.178;3.878;2022-09-09T16:16:05;57.45;;;35.50;;
23282;SDS011;11810;51.178;3.878;2022-09-09T16:18:51;47.95;;;28.65;;
23282;SDS011;11810;51.178;3.878;2022-09-09T16:21:26;34.95;;;18.17;;
23282;SDS011;11810;51.178;3.878;2022-09-09T16:23:57;29.48;;;16.08;;
23282;SDS011;11810;51.178;3.878;2022-09-09T16:26:25;33.38;;;16.50;;
23282;SDS011;11810;51.178;3.878;2022-09-09T16:28:52;38.28;;;17.77;;
23282;SDS011;11810;51.178;3.878;2022-09-09T16:31:20;46.25;;;21.13;;
23282;SDS011;11810;51.178;3.878;2022-09-09T16:33:47;54.78;;;28.77;;
23282;SDS011;11810;51.178;3.878;2022-09-09T16:36:19;28.10;;;13.82;;
23282;SDS011;11810;51.178;3.878;2022-09-09T16:38:47;19.60;;;9.45;;
23282;SDS011;11810;51.178;3.878;2022-09-09T16:41:14;13.70;;;5.30;;
23282;SDS011;11810;51.178;3.878;2022-09-09T16:43:40;11.60;;;4.82;;
23282;SDS011;11810;51.178;3.878;2022-09-09T16:46:16;10.27;;;4.43;;
23282;SDS011;11810;51.178;3.878;2022-09-09T16:48:45;10.93;;;4.20;;
23282;SDS011;11810;51.178;3.878;2022-09-09T16:51:15;12.95;;;4.78;;
23282;SDS011;11810;51.178;3.878;2022-09-09T16:53:43;8.20;;;4.65;;
23282;SDS011;11810;51.178;3.878;2022-09-09T16:56:10;9.55;;;4.75;;
23282;SDS011;11810;51.178;3.878;2022-09-09T16:58:41;8.05;;;5.00;;
23282;SDS011;11810;51.178;3.878;2022-09-09T17:01:08;0.10;;;0.10;;
23282;SDS011;11810;51.178;3.878;2022-09-09T17:03:36;0.00;;;0.00;;
23282;SDS011;11810;51.178;3.878;2022-09-09T17:06:02;0.43;;;0.43;;
23282;SDS011;11810;51.178;3.878;2022-09-09T17:08:33;0.35;;;0.35;;
23282;SDS011;11810;51.178;3.878;2022-09-09T17:10:59;0.45;;;0.45;;
23282;SDS011;11810;51.178;3.878;2022-09-09T17:13:25;15.32;;;1.90;;
23282;SDS011;11810;51.178;3.878;2022-09-09T17:15:51;0.70;;;0.70;;
23282;SDS011;11810;51.178;3.878;2022-09-09T17:18:17;0.25;;;0.25;;
23282;SDS011;11810;51.178;3.878;2022-09-09T17:20:43;0.75;;;0.75;;
23282;SDS011;11810;51.178;3.878;2022-09-09T17:23:10;0.47;;;0.47;;
23282;SDS011;11810;51.178;3.878;2022-09-09T17:25:40;1.80;;;1.70;;
23282;SDS011;11810;51.178;3.878;2022-09-09T17:28:06;0.40;;;0.40;;
23282;SDS011;11810;51.178;3.878;2022-09-09T17:30:35;0.00;;;0.00;;
23282;SDS011;11810;51.178;3.878;2022-09-09T17:33:02;0.65;;;0.55;;